Time;durP1;ratioP1;P1;durP2;ratioP2;P2;SDS_P1;SDS_P2;PMS_P1;PMS_P2;Temp;Humidity;BMP_temperature;BMP_pressure;BME280_temperature;BME280_humidity;BME280_pressure;Samples;Min_cycle;Max_cycle;Signal;HPM_P1;HPM_P2
2024/04/16 00:01:09;;;;;;;6.68;1.35;;;;;;;4.54;100.00;100074.34;5409277;26;20028;-70
2024/04/16 00:03:35;;;;;;;6.35;1.80;;;;;;;4.60;100.00;100078.91;5409417;26;20007;-71
2024/04/16 00:06:02;;;;;;;7.47;1.70;;;;;;;4.58;100.00;100078.25;5408034;26;20007;-70
2024/04/16 00:08:28;;;;;;;9.95;1.38;;;;;;;4.59;100.00;100079.06;5437902;26;20014;-70
2024/04/16 00:10:59;;;;;;;7.78;1.50;;;;;;;4.70;100.00;100080.69;5405605;26;20012;-70
2024/04/16 00:13:25;;;;;;;7.75;1.45;;;;;;;4.64;100.00;100074.34;5423008;26;20048;-70
2024/04/16 00:16:08;;;;;;;9.13;1.95;;;;;;;4.67;100.00;100080.00;5406483;26;20003;-70
2024/04/16 00:18:34;;;;;;;10.10;1.58;;;;;;;4.67;100.00;100080.00;5383104;26;20021;-70
2024/04/16 00:21:00;;;;;;;9.27;1.15;;;;;;;4.63;100.00;100072.69;5437680;26;20015;-70
2024/04/16 00:23:27;;;;;;;10.63;1.27;;;;;;;4.60;100.00;100066.09;5407614;26;20011;-70
2024/04/16 00:25:54;;;;;;;11.20;2.08;;;;;;;4.56;100.00;100058.75;5443647;26;20727;-70
2024/04/16 00:28:20;;;;;;;8.15;1.40;;;;;;;4.63;100.00;100054.72;5431813;26;20015;-71
2024/04/16 00:30:46;;;;;;;9.93;1.15;;;;;;;4.59;100.00;100049.03;5381906;26;20025;-71
2024/04/16 00:33:12;;;;;;;2.88;0.93;;;;;;;4.61;100.00;100048.91;5440187;26;20015;-70
2024/04/16 00:35:42;;;;;;;5.72;1.15;;;;;;;4.61;100.00;100038.63;5428056;26;20052;-70
2024/04/16 00:38:09;;;;;;;3.75;1.00;;;;;;;4.58;100.00;100033.78;5402548;26;20419;-70
2024/04/16 00:40:35;;;;;;;8.88;1.17;;;;;;;4.50;100.00;100026.75;5433718;26;20040;-70
2024/04/16 00:43:01;;;;;;;8.93;1.00;;;;;;;4.45;100.00;100034.84;5433371;26;20086;-70
2024/04/16 00:45:27;;;;;;;9.85;1.30;;;;;;;4.39;100.00;100027.69;5438346;26;19998;-70
2024/04/16 00:47:54;;;;;;;3.70;1.00;;;;;;;4.57;100.00;100032.97;5439897;26;20528;-71
2024/04/16 00:50:20;;;;;;;10.30;0.93;;;;;;;4.53;100.00;100033.38;5443015;26;20083;-70
2024/04/16 00:52:46;;;;;;;7.68;0.90;;;;;;;4.45;100.00;100029.72;5408348;26;20003;-70
2024/04/16 00:55:12;;;;;;;4.00;1.17;;;;;;;4.42;100.00;100035.13;5439935;26;19999;-70
2024/04/16 00:57:38;;;;;;;8.85;1.10;;;;;;;4.29;100.00;100035.41;5380420;26;20061;-70
2024/04/16 01:00:05;;;;;;;1.90;0.70;;;;;;;4.34;100.00;100029.06;5435947;26;20083;-71
2024/04/16 01:02:31;;;;;;;3.90;1.17;;;;;;;4.40;100.00;100031.88;5434630;26;20012;-70
2024/04/16 01:04:57;;;;;;;4.25;1.38;;;;;;;4.43;100.00;100029.06;5410476;26;19991;-71
2024/04/16 01:07:24;;;;;;;4.28;1.25;;;;;;;4.43;100.00;100020.53;5440445;26;20022;-70
2024/04/16 01:09:50;;;;;;;4.20;1.30;;;;;;;4.45;100.00;100018.66;5411080;26;20072;-70
2024/04/16 01:12:16;;;;;;;3.65;1.05;;;;;;;4.48;100.00;100014.06;5452769;26;20566;-70
2024/04/16 01:14:42;;;;;;;12.93;1.52;;;;;;;4.40;100.00;100005.41;5444875;26;20002;-70
2024/04/16 01:17:08;;;;;;;7.15;1.67;;;;;;;4.42;100.00;100000.94;5436836;26;20072;-70
2024/04/16 01:19:34;;;;;;;12.27;2.15;;;;;;;4.51;100.00;100002.69;5440420;26;20007;-70
2024/04/16 01:22:00;;;;;;;9.18;1.23;;;;;;;4.44;100.00;99999.84;5445488;26;20007;-71
2024/04/16 01:24:26;;;;;;;6.97;1.58;;;;;;;4.45;100.00;99986.06;5445350;26;20745;-70
2024/04/16 01:26:52;;;;;;;4.72;1.33;;;;;;;4.60;100.00;99983.09;5436935;26;20076;-70
2024/04/16 01:29:18;;;;;;;5.68;1.38;;;;;;;4.56;100.00;99981.72;5413458;26;20393;-70
2024/04/16 01:31:44;;;;;;;3.65;1.58;;;;;;;4.66;100.00;99975.66;5405377;26;19998;-70
2024/04/16 01:34:10;;;;;;;9.80;2.58;;;;;;;4.70;100.00;99973.63;5443074;26;20010;-70
2024/04/16 01:36:36;;;;;;;9.63;1.75;;;;;;;4.70;100.00;99963.34;5406063;26;20481;-70
2024/04/16 01:39:03;;;;;;;7.15;1.10;;;;;;;4.62;100.00;99978.63;5412016;26;20002;-71
2024/04/16 01:41:29;;;;;;;11.40;2.00;;;;;;;4.61;100.00;99970.09;5411368;26;20461;-70
2024/04/16 01:43:55;;;;;;;9.63;1.48;;;;;;;4.63;100.00;99977.69;5443386;26;20002;-70
2024/04/16 01:46:21;;;;;;;7.85;1.40;;;;;;;4.47;100.00;99963.66;5402340;26;20018;-70
2024/04/16 01:48:47;;;;;;;5.75;1.73;;;;;;;4.49;100.00;99948.91;5436003;26;19995;-71
2024/04/16 01:51:42;;;;;;;14.60;2.30;;;;;;;4.49;100.00;99956.63;5438565;26;20003;-71
2024/04/16 01:54:08;;;;;;;4.28;1.42;;;;;;;4.52;100.00;99954.72;5439101;26;20522;-70
2024/04/16 01:56:34;;;;;;;9.75;1.40;;;;;;;4.60;100.00;99958.22;5442285;26;20000;-70
2024/04/16 01:59:01;;;;;;;5.95;1.55;;;;;;;4.51;100.00;99958.25;5413810;26;20675;-70
2024/04/16 02:01:28;;;;;;;10.05;1.30;;;;;;;4.58;100.00;99947.28;5413198;26;20003;-70
2024/04/16 02:03:54;;;;;;;5.90;1.08;;;;;;;4.61;100.00;99953.91;5443858;26;19995;-70
2024/04/16 02:06:19;;;;;;;6.82;1.27;;;;;;;4.54;100.00;99945.94;5442537;26;20113;-70
2024/04/16 02:08:45;;;;;;;12.57;2.38;;;;;;;4.43;100.00;99943.53;5410185;26;20056;-70
2024/04/16 02:11:11;;;;;;;9.93;1.52;;;;;;;4.44;100.00;99940.81;5415562;26;20075;-70
2024/04/16 02:13:37;;;;;;;4.80;1.02;;;;;;;4.50;100.00;99936.88;5442871;26;20007;-70
2024/04/16 02:16:04;;;;;;;9.27;1.60;;;;;;;4.51;100.00;99930.00;5439311;26;20007;-70
2024/04/16 02:18:30;;;;;;;14.32;2.05;;;;;;;4.55;100.00;99937.28;5442819;26;20014;-70
2024/04/16 02:20:56;;;;;;;6.13;1.30;;;;;;;4.65;100.00;99935.53;5440059;26;20476;-70
2024/04/16 02:23:21;;;;;;;10.45;1.63;;;;;;;4.63;100.00;99929.72;5436763;26;20004;-71
2024/04/16 02:25:48;;;;;;;10.40;1.88;;;;;;;4.65;100.00;99922.69;5405602;26;19999;-71
2024/04/16 02:28:14;;;;;;;14.25;1.35;;;;;;;4.62;100.00;99932.41;5440565;26;20403;-70
2024/04/16 02:30:41;;;;;;;6.00;1.20;;;;;;;4.64;100.00;99930.50;5438713;26;20006;-71
2024/04/16 02:33:09;;;;;;;8.60;1.35;;;;;;;4.75;100.00;99925.22;5403995;26;20007;-70
2024/04/16 02:35:35;;;;;;;12.93;1.45;;;;;;;4.79;100.00;99923.97;5446407;26;20011;-70
2024/04/16 02:38:01;;;;;;;9.93;1.45;;;;;;;4.79;100.00;99933.47;5436073;26;20030;-71
2024/04/16 02:40:27;;;;;;;6.60;1.45;;;;;;;4.75;100.00;99927.78;5444403;26;19999;-69
2024/04/16 02:42:53;;;;;;;8.13;2.15;;;;;;;4.80;100.00;99933.31;5447763;26;20008;-70
2024/04/16 02:45:21;;;;;;;10.90;1.83;;;;;;;4.80;100.00;99929.91;5414296;26;20006;-71
2024/04/16 02:47:47;;;;;;;6.20;1.52;;;;;;;4.75;100.00;99926.97;5438698;26;20521;-71
2024/04/16 02:50:13;;;;;;;12.13;1.40;;;;;;;4.73;100.00;99916.84;5433998;26;20015;-71
2024/04/16 02:52:39;;;;;;;7.35;1.95;;;;;;;4.63;100.00;99922.00;5409307;26;20022;-71
2024/04/16 02:55:07;;;;;;;10.35;1.73;;;;;;;4.58;100.00;99931.88;5441968;26;20002;-71
2024/04/16 02:57:34;;;;;;;11.32;1.70;;;;;;;4.56;100.00;99920.09;5450222;26;20010;-70
2024/04/16 03:00:01;;;;;;;9.32;2.55;;;;;;;4.56;100.00;99928.66;5410218;26;20876;-71
2024/04/16 03:02:27;;;;;;;7.13;1.63;;;;;;;4.54;100.00;99927.13;5438087;26;20022;-71
2024/04/16 03:04:53;;;;;;;7.55;1.73;;;;;;;4.56;100.00;99925.25;5439993;26;20476;-71
2024/04/16 03:07:19;;;;;;;6.90;1.40;;;;;;;4.52;100.00;99913.63;5414465;26;20072;-71
2024/04/16 03:09:45;;;;;;;4.25;1.20;;;;;;;4.47;100.00;99902.03;5403177;26;20007;-70
2024/04/16 03:12:11;;;;;;;8.90;2.00;;;;;;;4.37;100.00;99888.41;5441727;26;20003;-71
2024/04/16 03:14:37;;;;;;;14.88;3.15;;;;;;;4.34;100.00;99896.38;5433632;26;20009;-71
2024/04/16 03:17:04;;;;;;;8.35;1.65;;;;;;;4.29;100.00;99888.28;5410290;26;20007;-70
2024/04/16 03:19:30;;;;;;;8.52;1.90;;;;;;;4.28;100.00;99897.72;5440861;26;20072;-71
2024/04/16 03:21:56;;;;;;;8.82;1.77;;;;;;;4.22;100.00;99888.03;5429980;26;20003;-70
2024/04/16 03:24:22;;;;;;;9.20;1.73;;;;;;;4.14;100.00;99880.19;5435499;26;20002;-71
2024/04/16 03:26:48;;;;;;;14.15;2.72;;;;;;;4.15;100.00;99876.69;5406996;26;20022;-70
2024/04/16 03:29:15;;;;;;;8.10;1.55;;;;;;;4.20;100.00;99881.38;5444667;26;22053;-70
2024/04/16 03:31:41;;;;;;;6.50;2.55;;;;;;;4.24;100.00;99873.28;5440781;26;20015;-70
2024/04/16 03:34:07;;;;;;;12.10;2.00;;;;;;;4.12;100.00;99871.81;5436814;26;20006;-70
2024/04/16 03:36:33;;;;;;;10.27;2.05;;;;;;;4.22;100.00;99872.63;5437694;26;20002;-70
2024/04/16 03:38:59;;;;;;;9.95;2.13;;;;;;;4.14;100.00;99864.78;5407164;26;20026;-70
2024/04/16 03:41:25;;;;;;;18.65;2.20;;;;;;;4.22;100.00;99876.94;5438994;26;20003;-70
2024/04/16 03:43:51;;;;;;;7.88;1.60;;;;;;;4.17;100.00;99859.38;5443633;26;20003;-70
2024/04/16 03:46:17;;;;;;;6.22;1.48;;;;;;;4.20;100.00;99866.81;5377700;26;20000;-70
2024/04/16 03:48:43;;;;;;;10.25;1.55;;;;;;;4.15;100.00;99863.84;5439106;26;19999;-70
2024/04/16 03:51:09;;;;;;;7.75;1.80;;;;;;;4.20;100.00;99863.44;5439909;26;20507;-70
2024/04/16 03:53:35;;;;;;;7.03;1.90;;;;;;;4.29;100.00;99870.31;5440793;26;20007;-71
2024/04/16 03:56:01;;;;;;;11.82;2.28;;;;;;;4.32;100.00;99867.47;5403769;26;20350;-71
2024/04/16 03:58:27;;;;;;;4.65;1.13;;;;;;;4.35;100.00;99853.53;5413352;26;20021;-72
2024/04/16 04:01:00;;;;;;;6.45;1.83;;;;;;;4.26;100.00;99853.44;5438114;26;20055;-70
2024/04/16 04:03:27;;;;;;;9.75;1.20;;;;;;;4.25;100.00;99861.25;5403324;26;20018;-71
2024/04/16 04:05:54;;;;;;;6.53;1.65;;;;;;;4.38;100.00;99864.34;5437332;26;20067;-71
2024/04/16 04:08:20;;;;;;;4.13;1.13;;;;;;;4.37;100.00;99859.34;5446582;26;20014;-70
2024/04/16 04:10:46;;;;;;;10.68;1.83;;;;;;;4.40;100.00;99859.06;5407746;26;20013;-71
2024/04/16 04:13:12;;;;;;;9.88;1.70;;;;;;;4.38;100.00;99853.28;5404391;26;20006;-70
2024/04/16 04:15:38;;;;;;;5.43;1.40;;;;;;;4.37;100.00;99857.59;5403902;26;20014;-71
2024/04/16 04:18:05;;;;;;;7.35;1.70;;;;;;;4.27;100.00;99859.38;5438181;26;20019;-71
2024/04/16 04:20:31;;;;;;;12.68;2.00;;;;;;;4.29;100.00;99852.34;5400767;26;20404;-71
2024/04/16 04:22:57;;;;;;;10.57;2.13;;;;;;;4.42;100.00;99852.84;5401306;26;20027;-70
2024/04/16 04:25:22;;;;;;;8.38;2.15;;;;;;;4.43;100.00;99840.84;5435645;26;20007;-70
2024/04/16 04:27:49;;;;;;;5.78;2.05;;;;;;;4.32;100.00;99841.00;5437909;26;20007;-70
2024/04/16 04:30:15;;;;;;;7.05;2.67;;;;;;;4.45;100.00;99837.19;5430883;26;20022;-70
2024/04/16 04:32:41;;;;;;;13.73;2.28;;;;;;;4.43;100.00;99821.09;5427685;26;20051;-70
2024/04/16 04:35:07;;;;;;;14.43;2.55;;;;;;;4.44;100.00;99839.88;5405168;26;20025;-71
2024/04/16 04:37:33;;;;;;;10.10;1.92;;;;;;;4.43;100.00;99825.44;5407086;26;20018;-71
2024/04/16 04:39:59;;;;;;;11.63;2.00;;;;;;;4.42;100.00;99834.06;5427424;26;20013;-70
2024/04/16 04:42:28;;;;;;;8.50;1.80;;;;;;;4.53;100.00;99831.34;5435582;26;20011;-72
2024/04/16 04:44:54;;;;;;;6.82;2.00;;;;;;;4.47;100.00;99824.19;5432963;26;20018;-70
2024/04/16 04:47:20;;;;;;;8.10;2.40;;;;;;;4.39;100.00;99824.91;5438316;26;20157;-69
2024/04/16 04:49:47;;;;;;;5.45;1.95;;;;;;;4.45;100.00;99819.19;5434791;26;20469;-70
2024/04/16 04:52:13;;;;;;;10.30;1.80;;;;;;;4.44;100.00;99812.44;5442839;26;20473;-71
2024/04/16 04:54:39;;;;;;;10.75;2.45;;;;;;;4.49;100.00;99814.59;5434916;26;20458;-71
2024/04/16 04:57:05;;;;;;;10.23;2.25;;;;;;;4.54;100.00;99821.88;5445055;26;20045;-71
2024/04/16 04:59:31;;;;;;;6.88;1.80;;;;;;;4.52;100.00;99798.09;5406255;26;20003;-70
2024/04/16 05:01:59;;;;;;;16.05;2.65;;;;;;;4.65;100.00;99806.28;5439646;26;20083;-70
2024/04/16 05:04:25;;;;;;;15.30;2.05;;;;;;;4.63;100.00;99805.63;5407927;26;20076;-71
2024/04/16 05:06:51;;;;;;;9.77;2.05;;;;;;;4.66;100.00;99806.16;5411191;26;20088;-70
2024/04/16 05:09:17;;;;;;;10.57;2.00;;;;;;;4.66;100.00;99798.44;5438250;26;20007;-70
2024/04/16 05:11:43;;;;;;;11.93;2.10;;;;;;;4.74;100.00;99805.44;5408213;26;20012;-70
2024/04/16 05:14:09;;;;;;;10.43;2.08;;;;;;;4.74;100.00;99804.63;5439050;26;20018;-70
2024/04/16 05:16:38;;;;;;;8.95;2.35;;;;;;;4.85;100.00;99807.00;5441783;26;20415;-71
2024/04/16 05:19:05;;;;;;;13.80;3.15;;;;;;;4.87;100.00;99795.63;5436979;26;20083;-71
2024/04/16 05:21:31;;;;;;;8.77;1.70;;;;;;;4.83;100.00;99793.50;5406369;26;20095;-70
2024/04/16 05:23:57;;;;;;;9.38;1.75;;;;;;;4.93;100.00;99790.88;5431188;26;20531;-70
2024/04/16 05:26:23;;;;;;;9.63;2.00;;;;;;;4.92;100.00;99789.28;5439507;26;20038;-71
2024/04/16 05:28:50;;;;;;;6.82;1.40;;;;;;;4.93;100.00;99785.75;5429939;26;20006;-69
2024/04/16 05:31:16;;;;;;;6.40;1.85;;;;;;;5.01;100.00;99781.50;5437506;26;20011;-70
2024/04/16 05:33:42;;;;;;;6.88;1.80;;;;;;;4.97;100.00;99790.47;5415366;26;20485;-71
2024/04/16 05:36:08;;;;;;;13.95;2.75;;;;;;;4.97;100.00;99771.66;5443825;26;20007;-70
2024/04/16 05:38:35;;;;;;;5.15;1.85;;;;;;;4.96;100.00;99768.28;5408357;26;20007;-70
2024/04/16 05:41:03;;;;;;;7.68;1.88;;;;;;;5.01;100.00;99772.97;5413656;26;19999;-73
2024/04/16 05:43:29;;;;;;;8.32;2.00;;;;;;;5.03;100.00;99771.09;5407877;26;20007;-70
2024/04/16 05:45:55;;;;;;;9.95;2.42;;;;;;;5.00;100.00;99768.81;5441490;26;20125;-70
2024/04/16 05:48:22;;;;;;;4.80;2.25;;;;;;;5.06;100.00;99781.88;5441661;26;20007;-71
2024/04/16 05:50:48;;;;;;;7.03;1.80;;;;;;;4.98;100.00;99770.72;5442655;26;20034;-71
2024/04/16 05:53:15;;;;;;;6.55;1.80;;;;;;;4.98;100.00;99757.88;5410345;26;20009;-71
2024/04/16 05:55:41;;;;;;;17.00;2.30;;;;;;;5.05;100.00;99762.28;5439064;26;21143;-71
2024/04/16 05:58:10;;;;;;;5.90;2.00;;;;;;;5.00;100.00;99749.06;5445719;26;20022;-72
2024/04/16 06:00:39;;;;;;;4.65;2.20;;;;;;;4.96;100.00;99739.22;5379308;26;20019;-71
2024/04/16 06:03:07;;;;;;;11.25;2.42;;;;;;;4.95;100.00;99729.88;5439455;26;20048;-71
2024/04/16 06:05:34;;;;;;;7.18;2.35;;;;;;;4.92;100.00;99735.34;5412162;26;20394;-71
2024/04/16 06:08:00;;;;;;;11.05;2.60;;;;;;;4.87;100.00;99722.91;5411928;26;20019;-70
2024/04/16 06:10:25;;;;;;;11.73;2.47;;;;;;;4.90;100.00;99726.94;5439078;26;20007;-71
2024/04/16 06:12:51;;;;;;;8.77;1.98;;;;;;;4.95;100.00;99711.91;5413453;26;20017;-71
2024/04/16 06:15:17;;;;;;;7.10;2.13;;;;;;;4.97;100.00;99718.53;5413047;26;20014;-72
2024/04/16 06:17:43;;;;;;;11.68;2.30;;;;;;;4.93;100.00;99716.38;5443955;26;19995;-73
2024/04/16 06:20:09;;;;;;;10.70;2.70;;;;;;;4.88;100.00;99696.28;5432971;26;20055;-71
2024/04/16 06:22:39;;;;;;;5.68;2.20;;;;;;;4.95;100.00;99693.91;5441542;26;20014;-71
2024/04/16 06:25:07;;;;;;;7.45;2.22;;;;;;;4.96;100.00;99698.91;5411937;26;20057;-71
2024/04/16 06:27:33;;;;;;;7.30;2.20;;;;;;;4.88;100.00;99699.66;5444298;26;20072;-71
2024/04/16 06:29:59;;;;;;;9.38;2.13;;;;;;;4.81;100.00;99690.09;5405398;26;20084;-72
2024/04/16 06:32:25;;;;;;;14.15;2.17;;;;;;;4.84;100.00;99693.19;5406672;26;20514;-73
2024/04/16 06:34:51;;;;;;;9.23;2.72;;;;;;;4.78;100.00;99698.09;5415914;26;20011;-72
2024/04/16 06:37:17;;;;;;;7.07;2.00;;;;;;;4.83;100.00;99681.28;5412894;26;20017;-72
2024/04/16 06:39:43;;;;;;;6.28;1.75;;;;;;;4.76;100.00;99684.59;5445782;26;20017;-72
2024/04/16 06:42:09;;;;;;;3.92;1.52;;;;;;;4.70;100.00;99693.69;5412545;26;20408;-71
2024/04/16 06:44:36;;;;;;;6.32;1.67;;;;;;;4.72;100.00;99691.75;5450668;26;20014;-72
2024/04/16 06:47:02;;;;;;;4.13;0.95;;;;;;;4.61;100.00;99685.06;5410641;26;20043;-71
2024/04/16 06:49:29;;;;;;;4.22;0.93;;;;;;;4.61;100.00;99674.78;5416517;26;20029;-71
2024/04/16 06:51:55;;;;;;;2.53;0.70;;;;;;;4.54;100.00;99678.91;5437650;26;20489;-70
2024/04/16 06:54:21;;;;;;;3.60;0.90;;;;;;;4.54;100.00;99657.53;5441238;26;19999;-73
2024/04/16 06:56:47;;;;;;;4.93;0.90;;;;;;;4.46;100.00;99674.50;5442345;26;20446;-71
2024/04/16 06:59:14;;;;;;;2.30;0.90;;;;;;;4.61;100.00;99666.28;5407737;26;20006;-72
2024/04/16 07:01:40;;;;;;;4.72;1.00;;;;;;;4.62;100.00;99665.34;5440843;26;20011;-71
2024/04/16 07:04:06;;;;;;;4.13;1.20;;;;;;;4.63;100.00;99672.91;5438235;26;20077;-71
2024/04/16 07:06:32;;;;;;;2.40;0.90;;;;;;;4.70;100.00;99669.75;5442583;26;20003;-71
2024/04/16 07:08:58;;;;;;;2.97;1.15;;;;;;;4.66;100.00;99671.81;5435439;26;19999;-71
2024/04/16 07:11:24;;;;;;;2.00;0.85;;;;;;;4.71;100.00;99673.94;5441775;26;20015;-73
2024/04/16 07:13:50;;;;;;;5.57;2.60;;;;;;;4.79;100.00;99663.75;5442714;26;20003;-70
2024/04/16 07:16:16;;;;;;;4.60;1.77;;;;;;;4.85;100.00;99653.69;5409937;26;20361;-71
2024/04/16 07:18:43;;;;;;;2.25;1.02;;;;;;;4.94;100.00;99667.44;5442185;26;20015;-72
2024/04/16 07:21:09;;;;;;;6.68;1.95;;;;;;;4.94;100.00;99664.06;5444682;26;20007;-71
2024/04/16 07:23:35;;;;;;;3.97;1.80;;;;;;;4.91;100.00;99660.00;5412909;26;20011;-71
2024/04/16 07:26:01;;;;;;;6.45;1.40;;;;;;;5.03;100.00;99663.97;5437365;26;20037;-71
2024/04/16 07:28:27;;;;;;;4.90;1.45;;;;;;;4.95;100.00;99663.88;5409766;26;20439;-71
2024/04/16 07:30:53;;;;;;;4.43;1.85;;;;;;;5.07;100.00;99662.72;5440744;26;20007;-72
2024/04/16 07:33:21;;;;;;;5.72;2.42;;;;;;;5.16;100.00;99679.03;5413717;26;20014;-72
2024/04/16 07:35:47;;;;;;;9.77;2.10;;;;;;;5.28;100.00;99671.88;5382366;26;20043;-71
2024/04/16 07:38:14;;;;;;;10.70;2.15;;;;;;;5.22;100.00;99685.34;5442652;26;19999;-71
2024/04/16 07:40:40;;;;;;;13.45;2.63;;;;;;;5.26;100.00;99690.03;5413547;26;20043;-71
2024/04/16 07:43:07;;;;;;;10.10;3.03;;;;;;;5.38;100.00;99685.44;5442822;26;20038;-70
2024/04/16 07:45:33;;;;;;;9.35;3.10;;;;;;;5.47;100.00;99679.41;5384091;26;20006;-74
2024/04/16 07:47:59;;;;;;;7.97;2.55;;;;;;;5.52;100.00;99684.13;5443946;26;20007;-71
2024/04/16 07:50:25;;;;;;;6.80;3.30;;;;;;;5.66;100.00;99701.56;5442841;26;20006;-71
2024/04/16 07:52:51;;;;;;;9.65;3.20;;;;;;;5.75;100.00;99670.75;5439510;26;20007;-72
2024/04/16 07:55:17;;;;;;;10.73;3.90;;;;;;;5.85;100.00;99671.44;5439716;26;20007;-71
2024/04/16 07:57:43;;;;;;;13.70;4.28;;;;;;;5.97;100.00;99679.72;5443350;26;20010;-73
2024/04/16 08:00:09;;;;;;;8.75;3.88;;;;;;;6.00;100.00;99687.16;5442420;26;20002;-73
2024/04/16 08:02:38;;;;;;;15.27;3.92;;;;;;;6.00;100.00;99687.94;5444712;26;20580;-71
2024/04/16 08:05:05;;;;;;;13.25;3.38;;;;;;;6.10;100.00;99682.69;5440475;26;20007;-71
2024/04/16 08:07:31;;;;;;;15.48;3.45;;;;;;;6.14;100.00;99684.03;5413031;26;20038;-70
2024/04/16 08:09:59;;;;;;;10.48;3.00;;;;;;;6.15;100.00;99679.66;5442498;26;20488;-71
2024/04/16 08:12:25;;;;;;;21.90;4.35;;;;;;;6.23;100.00;99680.53;5444700;26;20105;-72
2024/04/16 08:14:51;;;;;;;14.30;3.88;;;;;;;6.37;100.00;99684.25;5452551;26;20002;-72
2024/04/16 08:17:17;;;;;;;13.93;3.67;;;;;;;6.40;100.00;99685.72;5441067;26;20334;-72
2024/04/16 08:19:43;;;;;;;10.68;4.25;;;;;;;6.49;100.00;99682.19;5401674;26;21142;-70
2024/04/16 08:22:09;;;;;;;7.97;3.38;;;;;;;6.57;100.00;99687.41;5445563;26;20035;-71
2024/04/16 08:24:35;;;;;;;10.15;3.22;;;;;;;6.65;100.00;99681.44;5445645;26;19997;-71
2024/04/16 08:27:01;;;;;;;11.93;2.85;;;;;;;6.75;100.00;99681.31;5441669;26;20007;-71
2024/04/16 08:29:27;;;;;;;11.90;2.72;;;;;;;6.76;100.00;99680.31;5437617;26;20002;-72
2024/04/16 08:31:53;;;;;;;7.85;2.47;;;;;;;6.78;100.00;99676.66;5449549;26;20007;-72
2024/04/16 08:34:18;;;;;;;10.00;3.45;;;;;;;6.75;100.00;99681.31;5414981;26;20338;-71
2024/04/16 08:36:45;;;;;;;11.55;3.67;;;;;;;6.81;100.00;99678.09;5387589;26;20011;-71
2024/04/16 08:39:11;;;;;;;12.43;2.78;;;;;;;6.90;100.00;99691.81;5435260;26;20058;-71
2024/04/16 08:41:37;;;;;;;24.02;3.38;;;;;;;6.85;100.00;99694.84;5411124;26;20001;-71
2024/04/16 08:44:06;;;;;;;14.10;2.50;;;;;;;7.02;100.00;99685.34;5443368;26;20038;-71
2024/04/16 08:46:34;;;;;;;11.32;1.92;;;;;;;7.08;100.00;99681.34;5439338;26;20069;-71
2024/04/16 08:49:01;;;;;;;13.20;2.35;;;;;;;7.12;100.00;99687.78;5408395;26;20016;-73
2024/04/16 08:51:29;;;;;;;15.25;1.90;;;;;;;7.20;100.00;99680.06;5407083;26;20410;-72
2024/04/16 08:53:55;;;;;;;9.30;2.35;;;;;;;7.30;100.00;99672.16;5443632;26;20484;-72
2024/04/16 08:56:23;;;;;;;8.68;2.28;;;;;;;7.36;100.00;99692.13;5435193;26;20006;-73
2024/04/16 08:58:49;;;;;;;9.70;2.35;;;;;;;7.39;100.00;99679.72;5440760;26;20075;-73
2024/04/16 09:01:17;;;;;;;8.30;2.53;;;;;;;7.58;100.00;99698.41;5441549;26;20768;-72
2024/04/16 09:03:49;;;;;;;13.10;2.20;;;;;;;7.60;100.00;99706.81;5441892;26;20403;-73
2024/04/16 09:06:17;;;;;;;6.68;2.25;;;;;;;7.67;100.00;99705.19;5409812;26;20102;-73
2024/04/16 09:08:44;;;;;;;11.38;2.05;;;;;;;7.78;100.00;99720.34;5440674;26;20375;-72
2024/04/16 09:11:10;;;;;;;12.63;2.55;;;;;;;7.76;100.00;99711.13;5412383;26;20045;-71
2024/04/16 09:13:43;;;;;;;12.70;3.03;;;;;;;7.94;100.00;99714.31;5444161;26;20029;-72
2024/04/16 09:16:10;;;;;;;9.30;2.72;;;;;;;8.11;100.00;99719.44;5442017;26;20019;-73
2024/04/16 09:18:36;;;;;;;10.10;2.45;;;;;;;8.25;100.00;99715.34;5411741;26;20083;-72
2024/04/16 09:21:02;;;;;;;14.05;1.90;;;;;;;8.22;100.00;99719.09;5441487;26;20007;-71
2024/04/16 09:23:28;;;;;;;12.60;2.75;;;;;;;8.29;100.00;99722.63;5411111;26;20010;-72
2024/04/16 09:25:55;;;;;;;5.65;2.00;;;;;;;8.25;100.00;99728.28;5442181;26;20022;-72
2024/04/16 09:28:21;;;;;;;17.40;4.25;;;;;;;8.22;100.00;99729.41;5413858;26;20415;-72
2024/04/16 09:30:57;;;;;;;10.43;2.45;;;;;;;8.27;100.00;99728.91;5441808;26;20007;-72
2024/04/16 09:33:23;;;;;;;13.00;2.45;;;;;;;8.18;100.00;99734.09;5441457;26;22342;-72
2024/04/16 09:35:49;;;;;;;11.48;1.95;;;;;;;8.21;100.00;99727.00;5437399;26;20007;-71
2024/04/16 09:38:18;;;;;;;8.85;2.30;;;;;;;8.18;100.00;99720.41;5439113;26;20002;-71
2024/04/16 09:40:45;;;;;;;14.90;2.10;;;;;;;8.25;100.00;99736.84;5408835;26;20461;-71
2024/04/16 09:43:12;;;;;;;11.43;1.80;;;;;;;8.23;100.00;99728.47;5434412;26;20088;-71
2024/04/16 09:45:40;;;;;;;15.10;2.83;;;;;;;8.27;100.00;99740.06;5380338;26;20080;-72
2024/04/16 09:48:07;;;;;;;16.35;2.20;;;;;;;8.39;100.00;99754.22;5409322;26;20018;-72
2024/04/16 09:50:35;;;;;;;8.30;1.55;;;;;;;8.37;100.00;99738.06;5443416;26;20014;-71
2024/04/16 09:53:02;;;;;;;11.05;1.90;;;;;;;8.33;100.00;99746.34;5442976;26;20025;-72
2024/04/16 09:55:30;;;;;;;7.28;1.50;;;;;;;8.36;100.00;99754.56;5440872;26;20427;-71
2024/04/16 09:57:58;;;;;;;6.10;1.63;;;;;;;8.33;100.00;99760.06;5442557;26;20010;-72
2024/04/16 10:00:24;;;;;;;12.98;1.65;;;;;;;8.33;100.00;99754.88;5410221;26;20083;-71
2024/04/16 10:02:51;;;;;;;9.45;1.40;;;;;;;8.32;100.00;99761.00;5447064;26;20007;-71
2024/04/16 10:05:17;;;;;;;13.30;1.52;;;;;;;8.29;100.00;99760.56;5441257;26;20518;-71
2024/04/16 10:07:48;;;;;;;11.35;1.85;;;;;;;8.27;100.00;99765.06;5446812;26;20441;-70
2024/04/16 10:10:15;;;;;;;13.60;1.60;;;;;;;8.29;100.00;99779.44;5410079;26;21187;-70
2024/04/16 10:12:43;;;;;;;9.55;1.63;;;;;;;8.31;100.00;99777.50;5409492;26;20057;-72
2024/04/16 10:15:12;;;;;;;6.40;2.08;;;;;;;8.33;100.00;99778.13;5440737;26;20038;-71
2024/04/16 10:17:56;;;;;;;10.70;1.80;;;;;;;8.30;100.00;99793.16;5438234;26;20038;-73
2024/04/16 10:20:26;;;;;;;8.52;1.75;;;;;;;8.26;100.00;99797.03;5440722;26;20007;-73
2024/04/16 10:22:57;;;;;;;12.50;2.05;;;;;;;8.23;100.00;99816.28;5445916;26;20017;-74
2024/04/16 10:25:28;;;;;;;12.88;2.70;;;;;;;8.16;100.00;99856.63;5417538;26;20007;-74
2024/04/16 10:27:54;;;;;;;4.75;1.38;;;;;;;7.75;100.00;99841.94;5413104;26;20007;-75
2024/04/16 10:30:20;;;;;;;5.03;1.10;;;;;;;7.68;100.00;99843.53;5439913;26;20018;-74
2024/04/16 10:32:49;;;;;;;3.58;1.10;;;;;;;7.65;100.00;99835.31;5412685;26;20018;-75
2024/04/16 10:35:18;;;;;;;6.15;2.75;;;;;;;7.62;100.00;99849.34;5442847;26;20431;-75
2024/04/16 10:37:50;;;;;;;6.60;1.45;;;;;;;7.58;100.00;99864.34;5416249;26;20466;-74
2024/04/16 10:40:27;;;;;;;10.95;1.48;;;;;;;7.57;100.00;99865.31;5440919;26;20011;-73
2024/04/16 10:42:56;;;;;;;4.93;1.00;;;;;;;7.33;100.00;99870.44;5442592;26;20044;-74
2024/04/16 10:45:22;;;;;;;2.67;0.82;;;;;;;7.15;100.00;99868.75;5410347;26;20022;-75
2024/04/16 10:47:49;;;;;;;5.85;0.90;;;;;;;7.29;100.00;99869.94;5414347;26;20003;-73
2024/04/16 10:50:15;;;;;;;5.07;1.23;;;;;;;7.16;100.00;99867.78;5410961;26;19998;-75
2024/04/16 10:52:41;;;;;;;5.72;1.10;;;;;;;7.18;100.00;99870.22;5444385;26;20049;-74
2024/04/16 10:55:07;;;;;;;8.27;1.60;;;;;;;7.35;100.00;99882.19;5414745;26;20447;-72
2024/04/16 10:57:33;;;;;;;3.53;1.10;;;;;;;7.55;100.00;99874.16;5436632;26;20019;-73
2024/04/16 11:00:00;;;;;;;10.23;2.03;;;;;;;7.62;100.00;99882.09;5443549;26;20454;-72
2024/04/16 11:02:26;;;;;;;9.95;1.60;;;;;;;7.60;100.00;99877.09;5443636;26;20143;-73
2024/04/16 11:04:52;;;;;;;7.53;1.40;;;;;;;7.68;100.00;99889.19;5442634;26;20099;-73
2024/04/16 11:07:18;;;;;;;5.43;1.17;;;;;;;7.82;100.00;99892.91;5441555;26;21146;-73
2024/04/16 11:09:44;;;;;;;8.55;1.65;;;;;;;7.89;100.00;99905.03;5435058;26;20010;-72
2024/04/16 11:12:11;;;;;;;5.40;1.25;;;;;;;8.09;100.00;99896.97;5442723;26;20007;-72
2024/04/16 11:14:37;;;;;;;3.75;1.35;;;;;;;8.28;100.00;99906.16;5382604;26;20010;-72
2024/04/16 11:17:04;;;;;;;5.85;1.20;;;;;;;8.55;100.00;99897.25;5438019;26;20021;-71
2024/04/16 11:19:30;;;;;;;6.35;1.70;;;;;;;8.72;100.00;99898.03;5437432;26;20003;-72
2024/04/16 11:21:57;;;;;;;8.30;1.42;;;;;;;8.75;100.00;99908.84;5411950;26;20050;-72
2024/04/16 11:24:24;;;;;;;9.75;1.20;;;;;;;8.79;100.00;99896.41;5413382;26;20003;-72
2024/04/16 11:26:50;;;;;;;9.90;1.90;;;;;;;8.96;100.00;99899.75;5445125;26;20087;-71